sensor_id;sensor_type;location;lat;lon;timestamp;P1;durP1;ratioP1;P2;durP2;ratioP2
1076;SDS011;64114;48.726;9.370;2023-02-01T00:00:55;3.07;;;2.40;;
1076;SDS011;64114;48.726;9.370;2023-02-01T00:03:22;2.57;;;2.23;;
1076;SDS011;64114;48.726;9.370;2023-02-01T00:05:54;2.70;;;2.30;;
1076;SDS011;64114;48.726;9.370;2023-02-01T00:08:23;3.30;;;3.00;;
1076;SDS011;64114;48.726;9.370;2023-02-01T00:10:57;3.03;;;2.83;;
1076;SDS011;64114;48.726;9.370;2023-02-01T00:13:27;3.70;;;2.67;;
1076;SDS011;64114;48.726;9.370;2023-02-01T00:16:03;4.27;;;2.33;;
1076;SDS011;64114;48.726;9.370;2023-02-01T00:18:31;2.60;;;2.23;;
1076;SDS011;64114;48.726;9.370;2023-02-01T00:21:00;3.23;;;2.10;;
1076;SDS011;64114;48.726;9.370;2023-02-01T00:23:31;2.90;;;2.70;;
1076;SDS011;64114;48.726;9.370;2023-02-01T00:26:00;3.70;;;2.80;;
1076;SDS011;64114;48.726;9.370;2023-02-01T00:28:29;2.60;;;2.20;;
1076;SDS011;64114;48.726;9.370;2023-02-01T00:30:58;2.67;;;2.50;;
1076;SDS011;64114;48.726;9.370;2023-02-01T00:33:29;2.70;;;2.17;;
1076;SDS011;64114;48.726;9.370;2023-02-01T00:36:00;2.57;;;2.20;;
1076;SDS011;64114;48.726;9.370;2023-02-01T00:38:29;2.50;;;1.80;;
1076;SDS011;64114;48.726;9.370;2023-02-01T00:41:01;2.93;;;1.50;;
1076;SDS011;64114;48.726;9.370;2023-02-01T00:43:30;2.43;;;1.90;;
1076;SDS011;64114;48.726;9.370;2023-02-01T00:45:59;2.13;;;1.80;;
1076;SDS011;64114;48.726;9.370;2023-02-01T00:48:29;2.13;;;1.73;;
1076;SDS011;64114;48.726;9.370;2023-02-01T00:50:58;2.27;;;2.10;;
1076;SDS011;64114;48.726;9.370;2023-02-01T00:53:26;2.77;;;1.63;;
1076;SDS011;64114;48.726;9.370;2023-02-01T00:55:54;2.40;;;2.03;;
1076;SDS011;64114;48.726;9.370;2023-02-01T00:58:22;5.43;;;2.10;;
1076;SDS011;64114;48.726;9.370;2023-02-01T01:01:00;2.73;;;2.03;;
1076;SDS011;64114;48.726;9.370;2023-02-01T01:03:30;1.70;;;1.60;;
1076;SDS011;64114;48.726;9.370;2023-02-01T01:06:00;3.10;;;1.93;;
1076;SDS011;64114;48.726;9.370;2023-02-01T01:08:30;3.40;;;2.50;;
1076;SDS011;64114;48.726;9.370;2023-02-01T01:10:58;2.30;;;1.87;;
1076;SDS011;64114;48.726;9.370;2023-02-01T01:13:26;5.90;;;2.10;;
1076;SDS011;64114;48.726;9.370;2023-02-01T01:15:54;1.90;;;1.50;;
1076;SDS011;64114;48.726;9.370;2023-02-01T01:18:21;5.53;;;1.93;;
1076;SDS011;64114;48.726;9.370;2023-02-01T01:20:51;1.47;;;1.40;;
1076;SDS011;64114;48.726;9.370;2023-02-01T01:23:19;2.73;;;1.47;;
1076;SDS011;64114;48.726;9.370;2023-02-01T01:25:47;1.87;;;1.83;;
1076;SDS011;64114;48.726;9.370;2023-02-01T01:28:14;2.30;;;1.50;;
1076;SDS011;64114;48.726;9.370;2023-02-01T01:30:42;1.87;;;1.80;;
1076;SDS011;64114;48.726;9.370;2023-02-01T01:33:11;3.70;;;1.93;;
1076;SDS011;64114;48.726;9.370;2023-02-01T01:35:39;2.27;;;1.70;;
1076;SDS011;64114;48.726;9.370;2023-02-01T01:38:09;2.07;;;1.63;;
1076;SDS011;64114;48.726;9.370;2023-02-01T01:40:37;2.60;;;1.83;;
1076;SDS011;64114;48.726;9.370;2023-02-01T01:43:11;3.20;;;1.70;;
1076;SDS011;64114;48.726;9.370;2023-02-01T01:45:41;2.70;;;1.57;;
1076;SDS011;64114;48.726;9.370;2023-02-01T01:48:11;2.67;;;1.50;;
1076;SDS011;64114;48.726;9.370;2023-02-01T01:50:44;1.97;;;1.70;;
1076;SDS011;64114;48.726;9.370;2023-02-01T01:53:18;6.00;;;2.20;;
1076;SDS011;64114;48.726;9.370;2023-02-01T01:55:51;2.50;;;2.30;;
1076;SDS011;64114;48.726;9.370;2023-02-01T01:58:22;2.23;;;2.03;;
1076;SDS011;64114;48.726;9.370;2023-02-01T02:00:54;4.97;;;2.20;;
1076;SDS011;64114;48.726;9.370;2023-02-01T02:03:23;2.70;;;1.90;;
1076;SDS011;64114;48.726;9.370;2023-02-01T02:05:55;3.17;;;2.20;;
1076;SDS011;64114;48.726;9.370;2023-02-01T02:08:27;1.70;;;1.63;;
1076;SDS011;64114;48.726;9.370;2023-02-01T02:10:56;2.47;;;1.70;;
1076;SDS011;64114;48.726;9.370;2023-02-01T02:13:30;2.80;;;2.10;;
1076;SDS011;64114;48.726;9.370;2023-02-01T02:16:14;3.80;;;2.50;;
1076;SDS011;64114;48.726;9.370;2023-02-01T02:18:55;2.70;;;1.73;;
1076;SDS011;64114;48.726;9.370;2023-02-01T02:21:36;2.47;;;2.20;;
1076;SDS011;64114;48.726;9.370;2023-02-01T02:27:21;2.20;;;1.70;;
1076;SDS011;64114;48.726;9.370;2023-02-01T02:30:02;3.00;;;2.07;;
1076;SDS011;64114;48.726;9.370;2023-02-01T02:36:10;2.20;;;1.57;;
1076;SDS011;64114;48.726;9.370;2023-02-01T02:38:47;3.10;;;2.30;;
1076;SDS011;64114;48.726;9.370;2023-02-01T02:41:21;1.93;;;1.83;;
1076;SDS011;64114;48.726;9.370;2023-02-01T02:44:27;2.30;;;1.97;;
1076;SDS011;64114;48.726;9.370;2023-02-01T02:47:21;2.37;;;2.27;;
1076;SDS011;64114;48.726;9.370;2023-02-01T02:49:55;2.87;;;1.70;;
1076;SDS011;64114;48.726;9.370;2023-02-01T02:52:51;2.73;;;2.17;;
1076;SDS011;64114;48.726;9.370;2023-02-01T02:55:42;2.10;;;1.97;;
1076;SDS011;64114;48.726;9.370;2023-02-01T02:58:11;3.13;;;1.70;;
1076;SDS011;64114;48.726;9.370;2023-02-01T03:00:59;1.50;;;1.50;;
1076;SDS011;64114;48.726;9.370;2023-02-01T03:03:45;2.03;;;1.77;;
1076;SDS011;64114;48.726;9.370;2023-02-01T03:06:37;2.00;;;1.67;;
1076;SDS011;64114;48.726;9.370;2023-02-01T03:09:08;3.00;;;2.33;;
1076;SDS011;64114;48.726;9.370;2023-02-01T03:11:40;2.20;;;1.80;;
1076;SDS011;64114;48.726;9.370;2023-02-01T03:14:30;1.90;;;1.80;;
1076;SDS011;64114;48.726;9.370;2023-02-01T03:17:04;2.73;;;2.23;;
1076;SDS011;64114;48.726;9.370;2023-02-01T03:19:39;3.03;;;2.03;;
1076;SDS011;64114;48.726;9.370;2023-02-01T03:22:14;2.63;;;2.00;;
1076;SDS011;64114;48.726;9.370;2023-02-01T03:24:46;4.10;;;2.27;;
1076;SDS011;64114;48.726;9.370;2023-02-01T03:27:20;2.10;;;2.00;;
1076;SDS011;64114;48.726;9.370;2023-02-01T03:29:53;1.90;;;1.80;;
1076;SDS011;64114;48.726;9.370;2023-02-01T03:32:24;2.33;;;1.93;;
1076;SDS011;64114;48.726;9.370;2023-02-01T03:34:53;3.20;;;1.93;;
1076;SDS011;64114;48.726;9.370;2023-02-01T03:37:22;2.37;;;2.23;;
1076;SDS011;64114;48.726;9.370;2023-02-01T03:39:56;2.80;;;2.30;;
1076;SDS011;64114;48.726;9.370;2023-02-01T03:42:31;3.13;;;2.33;;
1076;SDS011;64114;48.726;9.370;2023-02-01T03:45:06;2.63;;;2.30;;
1076;SDS011;64114;48.726;9.370;2023-02-01T03:47:39;4.03;;;2.03;;
1076;SDS011;64114;48.726;9.370;2023-02-01T03:50:11;1.73;;;1.73;;
1076;SDS011;64114;48.726;9.370;2023-02-01T03:52:44;1.93;;;1.70;;
1076;SDS011;64114;48.726;9.370;2023-02-01T03:55:17;3.07;;;2.40;;
1076;SDS011;64114;48.726;9.370;2023-02-01T03:57:50;2.00;;;1.90;;
1076;SDS011;64114;48.726;9.370;2023-02-01T04:00:23;1.80;;;1.70;;
1076;SDS011;64114;48.726;9.370;2023-02-01T04:02:55;2.23;;;2.03;;
1076;SDS011;64114;48.726;9.370;2023-02-01T04:05:23;2.27;;;1.60;;
1076;SDS011;64114;48.726;9.370;2023-02-01T04:07:57;2.47;;;2.27;;
1076;SDS011;64114;48.726;9.370;2023-02-01T04:10:26;3.17;;;1.90;;
1076;SDS011;64114;48.726;9.370;2023-02-01T04:12:54;1.97;;;1.87;;
1076;SDS011;64114;48.726;9.370;2023-02-01T04:15:22;4.33;;;2.00;;
1076;SDS011;64114;48.726;9.370;2023-02-01T04:17:50;2.97;;;2.10;;
1076;SDS011;64114;48.726;9.370;2023-02-01T04:20:18;2.00;;;1.80;;
1076;SDS011;64114;48.726;9.370;2023-02-01T04:22:46;2.43;;;1.90;;
1076;SDS011;64114;48.726;9.370;2023-02-01T04:25:14;2.37;;;2.17;;
1076;SDS011;64114;48.726;9.370;2023-02-01T04:27:46;2.07;;;1.83;;
1076;SDS011;64114;48.726;9.370;2023-02-01T04:30:15;2.23;;;1.90;;
1076;SDS011;64114;48.726;9.370;2023-02-01T04:32:43;3.17;;;2.13;;
1076;SDS011;64114;48.726;9.370;2023-02-01T04:35:11;2.33;;;2.20;;
1076;SDS011;64114;48.726;9.370;2023-02-01T04:37:39;1.97;;;1.87;;
1076;SDS011;64114;48.726;9.370;2023-02-01T04:40:08;2.83;;;2.23;;
1076;SDS011;64114;48.726;9.370;2023-02-01T04:42:37;2.43;;;2.00;;
1076;SDS011;64114;48.726;9.370;2023-02-01T04:45:06;2.90;;;2.50;;
1076;SDS011;64114;48.726;9.370;2023-02-01T04:47:36;4.13;;;2.37;;
1076;SDS011;64114;48.726;9.370;2023-02-01T04:50:04;2.40;;;2.20;;
1076;SDS011;64114;48.726;9.370;2023-02-01T04:52:34;2.37;;;1.73;;
1076;SDS011;64114;48.726;9.370;2023-02-01T04:55:02;2.47;;;1.97;;
1076;SDS011;64114;48.726;9.370;2023-02-01T04:57:31;3.60;;;2.53;;
1076;SDS011;64114;48.726;9.370;2023-02-01T04:59:58;2.87;;;1.70;;
1076;SDS011;64114;48.726;9.370;2023-02-01T05:02:27;1.87;;;1.80;;
1076;SDS011;64114;48.726;9.370;2023-02-01T05:04:55;2.03;;;1.83;;
1076;SDS011;64114;48.726;9.370;2023-02-01T05:07:23;2.60;;;2.33;;
1076;SDS011;64114;48.726;9.370;2023-02-01T05:09:51;3.07;;;2.00;;
1076;SDS011;64114;48.726;9.370;2023-02-01T05:12:19;2.23;;;1.90;;
1076;SDS011;64114;48.726;9.370;2023-02-01T05:15:05;3.10;;;2.17;;
1076;SDS011;64114;48.726;9.370;2023-02-01T05:17:35;1.80;;;1.70;;
1076;SDS011;64114;48.726;9.370;2023-02-01T05:20:03;1.87;;;1.77;;
1076;SDS011;64114;48.726;9.370;2023-02-01T05:22:31;2.13;;;1.70;;
1076;SDS011;64114;48.726;9.370;2023-02-01T05:24:59;3.50;;;2.40;;
1076;SDS011;64114;48.726;9.370;2023-02-01T05:27:28;1.97;;;1.87;;
1076;SDS011;64114;48.726;9.370;2023-02-01T05:29:56;3.30;;;1.97;;
1076;SDS011;64114;48.726;9.370;2023-02-01T05:32:24;3.90;;;1.77;;
1076;SDS011;64114;48.726;9.370;2023-02-01T05:34:53;3.47;;;1.90;;
1076;SDS011;64114;48.726;9.370;2023-02-01T05:37:21;2.00;;;1.70;;
1076;SDS011;64114;48.726;9.370;2023-02-01T05:39:49;2.00;;;1.70;;
1076;SDS011;64114;48.726;9.370;2023-02-01T05:42:17;3.37;;;2.10;;
1076;SDS011;64114;48.726;9.370;2023-02-01T05:44:45;2.10;;;1.70;;
1076;SDS011;64114;48.726;9.370;2023-02-01T05:47:13;1.93;;;1.83;;
1076;SDS011;64114;48.726;9.370;2023-02-01T05:49:41;3.20;;;1.80;;
1076;SDS011;64114;48.726;9.370;2023-02-01T05:52:10;1.83;;;1.70;;
1076;SDS011;64114;48.726;9.370;2023-02-01T05:54:38;1.93;;;1.67;;
1076;SDS011;64114;48.726;9.370;2023-02-01T05:57:06;3.37;;;1.60;;
1076;SDS011;64114;48.726;9.370;2023-02-01T05:59:35;2.80;;;2.00;;
1076;SDS011;64114;48.726;9.370;2023-02-01T06:02:07;2.57;;;2.37;;
1076;SDS011;64114;48.726;9.370;2023-02-01T06:04:36;2.17;;;2.00;;
1076;SDS011;64114;48.726;9.370;2023-02-01T06:07:04;3.60;;;2.37;;
1076;SDS011;64114;48.726;9.370;2023-02-01T06:09:34;2.63;;;2.20;;
1076;SDS011;64114;48.726;9.370;2023-02-01T06:12:02;3.03;;;1.90;;
1076;SDS011;64114;48.726;9.370;2023-02-01T06:14:31;4.50;;;2.83;;
1076;SDS011;64114;48.726;9.370;2023-02-01T06:16:59;2.57;;;2.30;;
1076;SDS011;64114;48.726;9.370;2023-02-01T06:19:27;3.23;;;2.40;;
1076;SDS011;64114;48.726;9.370;2023-02-01T06:21:57;1.93;;;1.83;;
1076;SDS011;64114;48.726;9.370;2023-02-01T06:24:25;5.43;;;4.50;;
1076;SDS011;64114;48.726;9.370;2023-02-01T06:26:54;12.43;;;5.83;;
1076;SDS011;64114;48.726;9.370;2023-02-01T06:29:22;4.30;;;3.10;;
1076;SDS011;64114;48.726;9.370;2023-02-01T06:31:53;3.93;;;2.37;;
1076;SDS011;64114;48.726;9.370;2023-02-01T06:34:21;2.40;;;1.90;;
1076;SDS011;64114;48.726;9.370;2023-02-01T06:36:50;3.63;;;2.30;;
1076;SDS011;64114;48.726;9.370;2023-02-01T06:39:18;1.50;;;1.50;;
1076;SDS011;64114;48.726;9.370;2023-02-01T06:41:47;2.70;;;2.17;;
1076;SDS011;64114;48.726;9.370;2023-02-01T06:44:17;3.20;;;2.60;;
1076;SDS011;64114;48.726;9.370;2023-02-01T06:46:45;4.43;;;2.30;;
1076;SDS011;64114;48.726;9.370;2023-02-01T06:49:13;3.37;;;1.70;;
1076;SDS011;64114;48.726;9.370;2023-02-01T06:51:40;3.03;;;2.03;;
1076;SDS011;64114;48.726;9.370;2023-02-01T06:54:08;3.67;;;1.93;;
1076;SDS011;64114;48.726;9.370;2023-02-01T06:56:37;5.00;;;2.60;;
1076;SDS011;64114;48.726;9.370;2023-02-01T06:59:05;2.73;;;2.57;;
1076;SDS011;64114;48.726;9.370;2023-02-01T07:01:36;2.60;;;2.50;;
1076;SDS011;64114;48.726;9.370;2023-02-01T07:04:04;2.90;;;2.10;;
1076;SDS011;64114;48.726;9.370;2023-02-01T07:06:32;6.27;;;2.50;;
1076;SDS011;64114;48.726;9.370;2023-02-01T07:09:00;4.17;;;3.10;;
1076;SDS011;64114;48.726;9.370;2023-02-01T07:11:28;4.67;;;2.47;;
1076;SDS011;64114;48.726;9.370;2023-02-01T07:13:57;3.80;;;2.70;;
1076;SDS011;64114;48.726;9.370;2023-02-01T07:16:26;2.57;;;2.37;;
1076;SDS011;64114;48.726;9.370;2023-02-01T07:18:57;3.20;;;2.50;;
1076;SDS011;64114;48.726;9.370;2023-02-01T07:21:25;2.87;;;2.10;;
1076;SDS011;64114;48.726;9.370;2023-02-01T07:23:55;4.50;;;2.30;;
1076;SDS011;64114;48.726;9.370;2023-02-01T07:26:23;2.40;;;1.77;;
1076;SDS011;64114;48.726;9.370;2023-02-01T07:28:51;4.20;;;1.73;;
1076;SDS011;64114;48.726;9.370;2023-02-01T07:31:19;2.70;;;1.93;;
1076;SDS011;64114;48.726;9.370;2023-02-01T07:33:48;2.70;;;2.23;;
1076;SDS011;64114;48.726;9.370;2023-02-01T07:36:20;4.60;;;2.87;;
1076;SDS011;64114;48.726;9.370;2023-02-01T07:38:48;2.40;;;2.00;;
1076;SDS011;64114;48.726;9.370;2023-02-01T07:41:19;3.20;;;1.97;;
1076;SDS011;64114;48.726;9.370;2023-02-01T07:43:46;2.27;;;2.07;;
1076;SDS011;64114;48.726;9.370;2023-02-01T07:46:14;2.47;;;2.00;;
1076;SDS011;64114;48.726;9.370;2023-02-01T07:48:43;2.97;;;1.53;;
1076;SDS011;64114;48.726;9.370;2023-02-01T07:51:12;3.70;;;1.87;;
1076;SDS011;64114;48.726;9.370;2023-02-01T07:53:42;3.63;;;2.20;;
1076;SDS011;64114;48.726;9.370;2023-02-01T07:56:12;1.70;;;1.60;;
1076;SDS011;64114;48.726;9.370;2023-02-01T07:58:41;2.47;;;2.23;;
1076;SDS011;64114;48.726;9.370;2023-02-01T08:01:13;2.30;;;2.10;;
1076;SDS011;64114;48.726;9.370;2023-02-01T08:03:47;3.60;;;2.10;;
1076;SDS011;64114;48.726;9.370;2023-02-01T08:06:15;2.60;;;1.93;;
1076;SDS011;64114;48.726;9.370;2023-02-01T08:08:45;3.23;;;1.60;;
1076;SDS011;64114;48.726;9.370;2023-02-01T08:11:13;2.67;;;2.13;;
1076;SDS011;64114;48.726;9.370;2023-02-01T08:13:42;2.63;;;2.10;;
1076;SDS011;64114;48.726;9.370;2023-02-01T08:16:11;2.97;;;1.80;;
1076;SDS011;64114;48.726;9.370;2023-02-01T08:18:41;2.20;;;1.70;;
1076;SDS011;64114;48.726;9.370;2023-02-01T08:21:10;2.83;;;1.87;;
1076;SDS011;64114;48.726;9.370;2023-02-01T08:23:39;1.57;;;1.50;;
1076;SDS011;64114;48.726;9.370;2023-02-01T08:26:11;1.90;;;1.53;;
1076;SDS011;64114;48.726;9.370;2023-02-01T08:28:41;1.80;;;1.70;;
1076;SDS011;64114;48.726;9.370;2023-02-01T08:31:11;3.53;;;1.63;;
1076;SDS011;64114;48.726;9.370;2023-02-01T08:33:41;2.80;;;1.60;;
1076;SDS011;64114;48.726;9.370;2023-02-01T08:36:11;2.80;;;1.97;;
1076;SDS011;64114;48.726;9.370;2023-02-01T08:38:39;2.50;;;2.23;;
1076;SDS011;64114;48.726;9.370;2023-02-01T08:41:07;1.83;;;1.73;;
1076;SDS011;64114;48.726;9.370;2023-02-01T08:43:39;2.37;;;1.73;;
1076;SDS011;64114;48.726;9.370;2023-02-01T08:46:07;2.00;;;1.70;;
1076;SDS011;64114;48.726;9.370;2023-02-01T08:48:37;2.50;;;1.67;;
1076;SDS011;64114;48.726;9.370;2023-02-01T08:51:06;1.63;;;1.60;;
1076;SDS011;64114;48.726;9.370;2023-02-01T08:53:36;2.40;;;2.20;;
1076;SDS011;64114;48.726;9.370;2023-02-01T08:56:07;1.53;;;1.43;;
1076;SDS011;64114;48.726;9.370;2023-02-01T08:58:37;2.37;;;2.10;;
1076;SDS011;64114;48.726;9.370;2023-02-01T09:01:05;2.03;;;1.80;;
1076;SDS011;64114;48.726;9.370;2023-02-01T09:03:34;1.43;;;1.40;;
1076;SDS011;64114;48.726;9.370;2023-02-01T09:06:02;2.30;;;2.10;;
1076;SDS011;64114;48.726;9.370;2023-02-01T09:08:30;3.13;;;2.00;;
1076;SDS011;64114;48.726;9.370;2023-02-01T09:10:59;2.50;;;1.73;;
1076;SDS011;64114;48.726;9.370;2023-02-01T09:13:29;1.90;;;1.80;;
1076;SDS011;64114;48.726;9.370;2023-02-01T09:15:58;4.33;;;1.90;;
1076;SDS011;64114;48.726;9.370;2023-02-01T09:18:27;3.43;;;2.13;;
1076;SDS011;64114;48.726;9.370;2023-02-01T09:20:55;2.83;;;2.07;;
1076;SDS011;64114;48.726;9.370;2023-02-01T09:23:23;1.87;;;1.77;;
1076;SDS011;64114;48.726;9.370;2023-02-01T09:25:52;2.90;;;1.90;;
1076;SDS011;64114;48.726;9.370;2023-02-01T09:28:20;2.73;;;2.20;;
1076;SDS011;64114;48.726;9.370;2023-02-01T09:30:48;3.13;;;2.23;;
1076;SDS011;64114;48.726;9.370;2023-02-01T09:33:17;5.37;;;2.23;;
1076;SDS011;64114;48.726;9.370;2023-02-01T09:35:48;1.97;;;1.20;;
1076;SDS011;64114;48.726;9.370;2023-02-01T09:38:16;2.87;;;1.83;;
1076;SDS011;64114;48.726;9.370;2023-02-01T09:40:45;2.43;;;1.83;;
1076;SDS011;64114;48.726;9.370;2023-02-01T09:43:17;2.07;;;1.93;;
1076;SDS011;64114;48.726;9.370;2023-02-01T09:45:55;1.77;;;1.67;;
1076;SDS011;64114;48.726;9.370;2023-02-01T09:48:33;1.90;;;1.80;;
1076;SDS011;64114;48.726;9.370;2023-02-01T09:51:06;4.10;;;1.63;;
1076;SDS011;64114;48.726;9.370;2023-02-01T09:53:42;1.57;;;1.47;;
1076;SDS011;64114;48.726;9.370;2023-02-01T09:56:14;1.70;;;1.60;;
1076;SDS011;64114;48.726;9.370;2023-02-01T09:58:49;3.10;;;1.50;;
1076;SDS011;64114;48.726;9.370;2023-02-01T10:01:24;1.80;;;1.60;;
1076;SDS011;64114;48.726;9.370;2023-02-01T10:03:57;2.40;;;1.70;;
1076;SDS011;64114;48.726;9.370;2023-02-01T10:06:41;3.33;;;1.67;;
1076;SDS011;64114;48.726;9.370;2023-02-01T10:09:20;3.07;;;1.40;;
1076;SDS011;64114;48.726;9.370;2023-02-01T10:15:15;2.00;;;1.67;;
1076;SDS011;64114;48.726;9.370;2023-02-01T10:17:54;2.70;;;2.10;;
1076;SDS011;64114;48.726;9.370;2023-02-01T10:20:36;2.60;;;1.63;;
1076;SDS011;64114;48.726;9.370;2023-02-01T10:23:25;2.90;;;2.20;;
1076;SDS011;64114;48.726;9.370;2023-02-01T10:26:12;2.80;;;1.40;;
1076;SDS011;64114;48.726;9.370;2023-02-01T10:28:48;4.20;;;1.50;;
1076;SDS011;64114;48.726;9.370;2023-02-01T10:31:18;3.30;;;1.83;;
1076;SDS011;64114;48.726;9.370;2023-02-01T10:33:49;2.23;;;1.50;;
1076;SDS011;64114;48.726;9.370;2023-02-01T10:36:21;6.27;;;2.10;;
1076;SDS011;64114;48.726;9.370;2023-02-01T10:38:56;5.50;;;2.20;;
1076;SDS011;64114;48.726;9.370;2023-02-01T10:41:28;3.43;;;1.90;;
1076;SDS011;64114;48.726;9.370;2023-02-01T10:44:00;7.23;;;2.50;;
1076;SDS011;64114;48.726;9.370;2023-02-01T10:46:32;3.43;;;2.37;;
1076;SDS011;64114;48.726;9.370;2023-02-01T10:49:02;3.17;;;1.83;;
1076;SDS011;64114;48.726;9.370;2023-02-01T10:51:37;4.83;;;1.90;;
1076;SDS011;64114;48.726;9.370;2023-02-01T10:54:14;4.97;;;2.40;;
1076;SDS011;64114;48.726;9.370;2023-02-01T10:56:44;2.30;;;2.10;;
1076;SDS011;64114;48.726;9.370;2023-02-01T10:59:15;2.87;;;1.57;;
1076;SDS011;64114;48.726;9.370;2023-02-01T11:01:48;6.33;;;2.47;;
1076;SDS011;64114;48.726;9.370;2023-02-01T11:04:17;6.30;;;1.60;;
1076;SDS011;64114;48.726;9.370;2023-02-01T11:06:49;7.70;;;2.30;;
1076;SDS011;64114;48.726;9.370;2023-02-01T11:09:21;2.83;;;2.07;;
1076;SDS011;64114;48.726;9.370;2023-02-01T11:11:56;4.43;;;1.90;;
1076;SDS011;64114;48.726;9.370;2023-02-01T11:14:26;7.80;;;2.03;;
1076;SDS011;64114;48.726;9.370;2023-02-01T11:17:02;4.50;;;2.50;;
1076;SDS011;64114;48.726;9.370;2023-02-01T11:19:45;6.03;;;2.30;;
1076;SDS011;64114;48.726;9.370;2023-02-01T11:22:15;7.60;;;2.10;;
1076;SDS011;64114;48.726;9.370;2023-02-01T11:24:44;4.43;;;2.10;;
1076;SDS011;64114;48.726;9.370;2023-02-01T11:27:15;7.10;;;2.03;;
1076;SDS011;64114;48.726;9.370;2023-02-01T11:29:55;2.87;;;2.03;;
1076;SDS011;64114;48.726;9.370;2023-02-01T11:32:26;4.40;;;2.77;;
1076;SDS011;64114;48.726;9.370;2023-02-01T11:34:55;4.30;;;1.80;;
1076;SDS011;64114;48.726;9.370;2023-02-01T11:37:28;5.20;;;2.40;;
1076;SDS011;64114;48.726;9.370;2023-02-01T11:40:00;7.03;;;2.40;;
1076;SDS011;64114;48.726;9.370;2023-02-01T11:42:31;4.37;;;2.13;;
1076;SDS011;64114;48.726;9.370;2023-02-01T11:45:17;4.53;;;2.20;;
1076;SDS011;64114;48.726;9.370;2023-02-01T11:47:46;5.83;;;2.20;;
1076;SDS011;64114;48.726;9.370;2023-02-01T11:50:22;5.70;;;2.10;;
1076;SDS011;64114;48.726;9.370;2023-02-01T11:53:20;9.70;;;2.60;;
1076;SDS011;64114;48.726;9.370;2023-02-01T11:56:02;9.97;;;2.70;;
1076;SDS011;64114;48.726;9.370;2023-02-01T11:58:50;5.20;;;2.10;;
1076;SDS011;64114;48.726;9.370;2023-02-01T12:01:32;3.20;;;2.03;;
1076;SDS011;64114;48.726;9.370;2023-02-01T12:07:13;5.87;;;2.23;;
1076;SDS011;64114;48.726;9.370;2023-02-01T12:09:49;4.03;;;2.00;;
1076;SDS011;64114;48.726;9.370;2023-02-01T12:12:32;8.97;;;2.57;;
1076;SDS011;64114;48.726;9.370;2023-02-01T12:15:12;8.27;;;2.90;;
1076;SDS011;64114;48.726;9.370;2023-02-01T12:18:05;4.97;;;2.10;;
1076;SDS011;64114;48.726;9.370;2023-02-01T12:20:49;6.00;;;2.77;;
1076;SDS011;64114;48.726;9.370;2023-02-01T12:23:30;5.80;;;2.10;;
1076;SDS011;64114;48.726;9.370;2023-02-01T12:26:18;2.90;;;2.20;;
1076;SDS011;64114;48.726;9.370;2023-02-01T12:29:11;4.80;;;2.80;;
1076;SDS011;64114;48.726;9.370;2023-02-01T12:31:57;2.80;;;1.90;;
1076;SDS011;64114;48.726;9.370;2023-02-01T12:37:47;7.90;;;3.40;;
1076;SDS011;64114;48.726;9.370;2023-02-01T12:40:27;3.87;;;2.13;;
1076;SDS011;64114;48.726;9.370;2023-02-01T12:43:04;11.60;;;3.13;;
1076;SDS011;64114;48.726;9.370;2023-02-01T12:45:38;15.23;;;3.30;;
1076;SDS011;64114;48.726;9.370;2023-02-01T12:48:16;7.23;;;3.60;;
1076;SDS011;64114;48.726;9.370;2023-02-01T12:50:53;5.47;;;2.03;;
1076;SDS011;64114;48.726;9.370;2023-02-01T12:53:27;9.53;;;2.20;;
1076;SDS011;64114;48.726;9.370;2023-02-01T12:56:03;7.00;;;3.00;;
1076;SDS011;64114;48.726;9.370;2023-02-01T12:58:40;13.60;;;4.80;;
1076;SDS011;64114;48.726;9.370;2023-02-01T13:01:12;12.40;;;3.40;;
1076;SDS011;64114;48.726;9.370;2023-02-01T13:03:52;10.40;;;3.60;;
1076;SDS011;64114;48.726;9.370;2023-02-01T13:06:27;11.30;;;3.10;;
1076;SDS011;64114;48.726;9.370;2023-02-01T13:09:00;9.73;;;3.10;;
1076;SDS011;64114;48.726;9.370;2023-02-01T13:11:33;10.43;;;2.60;;
1076;SDS011;64114;48.726;9.370;2023-02-01T13:14:05;9.87;;;2.90;;
1076;SDS011;64114;48.726;9.370;2023-02-01T13:16:43;5.40;;;2.17;;
1076;SDS011;64114;48.726;9.370;2023-02-01T13:19:16;9.93;;;3.13;;
1076;SDS011;64114;48.726;9.370;2023-02-01T13:21:46;12.10;;;3.10;;
1076;SDS011;64114;48.726;9.370;2023-02-01T13:24:22;18.67;;;6.33;;
1076;SDS011;64114;48.726;9.370;2023-02-01T13:26:56;11.73;;;3.57;;
1076;SDS011;64114;48.726;9.370;2023-02-01T13:29:26;8.67;;;3.17;;
1076;SDS011;64114;48.726;9.370;2023-02-01T13:32:05;6.47;;;2.20;;
1076;SDS011;64114;48.726;9.370;2023-02-01T13:37:54;4.57;;;2.10;;
1076;SDS011;64114;48.726;9.370;2023-02-01T13:40:36;4.50;;;2.40;;
1076;SDS011;64114;48.726;9.370;2023-02-01T13:43:11;3.50;;;1.90;;
1076;SDS011;64114;48.726;9.370;2023-02-01T13:45:45;6.97;;;2.30;;
1076;SDS011;64114;48.726;9.370;2023-02-01T13:48:20;3.83;;;1.47;;
1076;SDS011;64114;48.726;9.370;2023-02-01T13:50:51;5.97;;;2.30;;
1076;SDS011;64114;48.726;9.370;2023-02-01T13:53:23;3.10;;;1.83;;
1076;SDS011;64114;48.726;9.370;2023-02-01T13:55:57;5.43;;;2.17;;
1076;SDS011;64114;48.726;9.370;2023-02-01T13:58:31;9.60;;;3.03;;
1076;SDS011;64114;48.726;9.370;2023-02-01T14:07:21;4.63;;;2.53;;
1076;SDS011;64114;48.726;9.370;2023-02-01T14:09:49;7.90;;;2.50;;
1076;SDS011;64114;48.726;9.370;2023-02-01T14:15:19;4.40;;;2.33;;
1076;SDS011;64114;48.726;9.370;2023-02-01T14:17:51;5.30;;;2.60;;
1076;SDS011;64114;48.726;9.370;2023-02-01T14:23:23;7.37;;;2.33;;
1076;SDS011;64114;48.726;9.370;2023-02-01T14:32:03;5.30;;;2.10;;
1076;SDS011;64114;48.726;9.370;2023-02-01T14:34:37;8.50;;;2.10;;
1076;SDS011;64114;48.726;9.370;2023-02-01T14:37:24;6.10;;;2.40;;
1076;SDS011;64114;48.726;9.370;2023-02-01T14:39:56;4.07;;;1.97;;
1076;SDS011;64114;48.726;9.370;2023-02-01T14:42:28;5.80;;;2.00;;
1076;SDS011;64114;48.726;9.370;2023-02-01T14:51:13;6.57;;;2.33;;
1076;SDS011;64114;48.726;9.370;2023-02-01T14:53:44;6.93;;;2.23;;
1076;SDS011;64114;48.726;9.370;2023-02-01T14:56:14;5.30;;;1.97;;
1076;SDS011;64114;48.726;9.370;2023-02-01T14:58:48;3.47;;;1.87;;
1076;SDS011;64114;48.726;9.370;2023-02-01T15:01:26;6.20;;;2.60;;
1076;SDS011;64114;48.726;9.370;2023-02-01T15:03:58;7.80;;;3.27;;
1076;SDS011;64114;48.726;9.370;2023-02-01T15:06:32;6.90;;;2.40;;
1076;SDS011;64114;48.726;9.370;2023-02-01T15:09:07;5.23;;;2.43;;
1076;SDS011;64114;48.726;9.370;2023-02-01T15:11:55;9.00;;;2.70;;
1076;SDS011;64114;48.726;9.370;2023-02-01T15:14:24;6.27;;;3.13;;
1076;SDS011;64114;48.726;9.370;2023-02-01T15:16:53;4.60;;;2.27;;
1076;SDS011;64114;48.726;9.370;2023-02-01T15:19:22;10.90;;;2.63;;
1076;SDS011;64114;48.726;9.370;2023-02-01T15:21:53;9.13;;;3.03;;
1076;SDS011;64114;48.726;9.370;2023-02-01T15:24:24;6.47;;;2.70;;
1076;SDS011;64114;48.726;9.370;2023-02-01T15:26:55;7.03;;;2.40;;
1076;SDS011;64114;48.726;9.370;2023-02-01T15:29:30;6.07;;;2.77;;
1076;SDS011;64114;48.726;9.370;2023-02-01T15:31:59;8.57;;;2.93;;
1076;SDS011;64114;48.726;9.370;2023-02-01T15:37:12;6.30;;;2.90;;
1076;SDS011;64114;48.726;9.370;2023-02-01T15:42:49;4.90;;;2.40;;
1076;SDS011;64114;48.726;9.370;2023-02-01T15:45:21;6.50;;;2.87;;
1076;SDS011;64114;48.726;9.370;2023-02-01T15:47:52;5.50;;;2.63;;
1076;SDS011;64114;48.726;9.370;2023-02-01T15:50:22;4.77;;;2.10;;
1076;SDS011;64114;48.726;9.370;2023-02-01T15:52:52;11.90;;;2.70;;
1076;SDS011;64114;48.726;9.370;2023-02-01T15:55:24;4.17;;;2.10;;
1076;SDS011;64114;48.726;9.370;2023-02-01T15:58:04;4.20;;;2.67;;
1076;SDS011;64114;48.726;9.370;2023-02-01T16:00:35;9.50;;;2.57;;
1076;SDS011;64114;48.726;9.370;2023-02-01T16:03:24;9.37;;;2.63;;
1076;SDS011;64114;48.726;9.370;2023-02-01T16:05:56;4.97;;;2.00;;
1076;SDS011;64114;48.726;9.370;2023-02-01T16:08:27;6.67;;;2.77;;
1076;SDS011;64114;48.726;9.370;2023-02-01T16:11:01;6.07;;;2.43;;
1076;SDS011;64114;48.726;9.370;2023-02-01T16:13:42;4.73;;;2.40;;
1076;SDS011;64114;48.726;9.370;2023-02-01T16:16:09;11.07;;;1.97;;
1076;SDS011;64114;48.726;9.370;2023-02-01T16:18:40;4.63;;;2.17;;
1076;SDS011;64114;48.726;9.370;2023-02-01T16:21:08;4.23;;;2.20;;